createdAt,value
2023-02-11T00:00:11.142Z,29.90
2023-02-11T00:00:40.049Z,29.17
2023-02-11T00:01:13.637Z,28.15
2023-02-11T00:01:29.558Z,28.48
2023-02-11T00:01:42.220Z,29.85
2023-02-11T00:01:54.959Z,29.83
2023-02-11T00:02:08.339Z,29.65
2023-02-11T00:02:21.125Z,29.85
2023-02-11T00:02:34.331Z,29.50
2023-02-11T00:02:48.294Z,29.45
2023-02-11T00:03:01.091Z,30.00
2023-02-11T00:03:13.843Z,31.00
2023-02-11T00:03:26.738Z,30.10
2023-02-11T00:03:39.783Z,29.23
2023-02-11T00:03:52.629Z,29.35
2023-02-11T00:04:06.490Z,29.40
2023-02-11T00:04:20.183Z,29.25
2023-02-11T00:04:32.891Z,28.92
2023-02-11T00:04:45.528Z,28.50
2023-02-11T00:04:58.225Z,28.90
2023-02-11T00:05:11.139Z,29.30
2023-02-11T00:05:24.123Z,29.42
2023-02-11T00:05:36.794Z,29.40
2023-02-11T00:05:58.765Z,29.35
2023-02-11T00:06:12.021Z,28.85
2023-02-11T00:06:25.614Z,28.55
2023-02-11T00:06:38.317Z,28.58
2023-02-11T00:06:51.006Z,28.60
2023-02-11T00:07:03.715Z,28.80
2023-02-11T00:07:16.379Z,29.42
2023-02-11T00:07:30.438Z,30.15
2023-02-11T00:07:43.230Z,30.05
2023-02-11T00:07:55.921Z,29.98
2023-02-11T00:08:08.600Z,30.25
2023-02-11T00:08:21.260Z,30.67
2023-02-11T00:08:33.895Z,30.45
2023-02-11T00:08:47.843Z,30.40
2023-02-11T00:09:01.257Z,30.27
2023-02-11T00:09:14.315Z,29.80
2023-02-11T00:09:27.073Z,28.88
2023-02-11T00:09:39.790Z,29.02
2023-02-11T00:09:52.658Z,29.70
2023-02-11T00:10:07.891Z,29.98
2023-02-11T00:10:21.644Z,30.27
2023-02-11T00:10:35.745Z,30.02
2023-02-11T00:10:52.233Z,28.92
2023-02-11T00:11:05.578Z,29.38
2023-02-11T00:11:20.108Z,30.33
2023-02-11T00:11:34.277Z,30.08
2023-02-11T00:11:46.978Z,29.88
2023-02-11T00:11:59.684Z,30.45
2023-02-11T00:12:12.402Z,30.55
2023-02-11T00:12:25.606Z,29.88
2023-02-11T00:12:38.691Z,29.45
2023-02-11T00:12:51.412Z,29.35
2023-02-11T00:13:05.369Z,29.60
2023-02-11T00:13:18.028Z,29.68
2023-02-11T00:13:30.683Z,29.88
2023-02-11T00:13:45.045Z,30.38
2023-02-11T00:13:58.347Z,30.85
2023-02-11T00:14:11.844Z,30.52
2023-02-11T00:14:25.646Z,29.90
2023-02-11T00:14:38.413Z,29.80
2023-02-11T00:14:51.224Z,29.73
2023-02-11T00:15:04.354Z,29.95
2023-02-11T00:15:17.267Z,30.38
2023-02-11T00:15:29.927Z,30.50
2023-02-11T00:15:43.610Z,29.90
2023-02-11T00:15:56.589Z,30.38
2023-02-11T00:16:10.752Z,30.52
2023-02-11T00:16:23.732Z,30.42
2023-02-11T00:16:36.669Z,30.85
2023-02-11T00:16:50.726Z,31.08
2023-02-11T00:17:03.452Z,30.70
2023-02-11T00:17:16.466Z,31.23
2023-02-11T00:17:29.207Z,31.63
2023-02-11T00:17:41.911Z,31.40
2023-02-11T00:17:54.697Z,30.73
2023-02-11T00:18:07.466Z,31.15
2023-02-11T00:18:21.112Z,31.25
2023-02-11T00:18:33.880Z,31.25
2023-02-11T00:18:47.048Z,30.77
2023-02-11T00:19:00.002Z,30.42
2023-02-11T00:19:12.697Z,30.23
2023-02-11T00:19:26.410Z,30.38
2023-02-11T00:19:39.984Z,30.77
2023-02-11T00:19:53.494Z,30.88
2023-02-11T00:20:08.298Z,30.60
2023-02-11T00:20:21.339Z,31.08
2023-02-11T00:20:33.945Z,31.13
2023-02-11T00:20:47.994Z,30.70
2023-02-11T00:21:05.590Z,30.65
2023-02-11T00:21:21.376Z,30.17
2023-02-11T00:21:34.784Z,30.23
2023-02-11T00:21:47.501Z,30.15
2023-02-11T00:22:00.226Z,29.90
2023-02-11T00:22:12.926Z,29.55
2023-02-11T00:22:26.670Z,30.33
2023-02-11T00:22:39.387Z,30.55
2023-02-11T00:22:52.178Z,30.95
2023-02-11T00:23:05.104Z,30.40
2023-02-11T00:23:17.862Z,29.80
2023-02-11T00:23:32.413Z,30.42
2023-02-11T00:23:46.199Z,31.13
2023-02-11T00:24:00.302Z,30.88
2023-02-11T00:24:13.086Z,30.73
2023-02-11T00:24:25.791Z,30.90
2023-02-11T00:24:39.732Z,30.83
2023-02-11T00:24:52.474Z,30.70
2023-02-11T00:25:05.893Z,31.27
2023-02-11T00:25:18.619Z,31.16
2023-02-11T00:25:31.880Z,30.98
2023-02-11T00:25:46.065Z,30.88
2023-02-11T00:25:58.798Z,31.02
2023-02-11T00:26:17.372Z,31.00
2023-02-11T00:26:32.182Z,30.38
2023-02-11T00:26:45.122Z,30.30
2023-02-11T00:27:00.753Z,30.20
2023-02-11T00:27:13.428Z,30.00
2023-02-11T00:27:26.262Z,29.75
2023-02-11T00:27:38.986Z,30.42
2023-02-11T00:27:52.707Z,30.83
2023-02-11T00:28:05.759Z,30.40
2023-02-11T00:28:18.540Z,30.25
2023-02-11T00:28:32.430Z,30.30
2023-02-11T00:28:46.270Z,29.83
2023-02-11T00:29:00.966Z,29.48
2023-02-11T00:29:13.828Z,29.33
2023-02-11T00:29:26.560Z,29.60
2023-02-11T00:29:40.027Z,29.23
2023-02-11T00:29:52.722Z,30.35
2023-02-11T00:30:06.172Z,30.33
2023-02-11T00:30:20.021Z,29.67
2023-02-11T00:30:32.924Z,30.23
2023-02-11T00:30:45.835Z,30.75
2023-02-11T00:30:59.328Z,30.10
2023-02-11T00:31:12.579Z,29.67
2023-02-11T00:31:26.263Z,29.10
2023-02-11T00:31:40.234Z,27.77
2023-02-11T00:31:53.037Z,28.30
2023-02-11T00:32:06.525Z,29.20
2023-02-11T00:32:19.261Z,28.73
2023-02-11T00:32:32.028Z,28.08
2023-02-11T00:32:45.089Z,27.92
2023-02-11T00:32:57.783Z,27.80
2023-02-11T00:33:11.479Z,27.38
2023-02-11T00:33:24.862Z,27.52
2023-02-11T00:33:37.817Z,29.00
2023-02-11T00:33:51.060Z,29.08
2023-02-11T00:34:03.762Z,28.98
2023-02-11T00:34:17.701Z,29.02
2023-02-11T00:34:30.417Z,28.65
2023-02-11T00:34:43.121Z,27.90
2023-02-11T00:34:55.863Z,27.65
2023-02-11T00:35:08.714Z,27.67
2023-02-11T00:35:21.421Z,28.40
2023-02-11T00:35:34.132Z,28.98
2023-02-11T00:35:46.829Z,28.45
2023-02-11T00:36:05.840Z,28.73
2023-02-11T00:36:20.778Z,28.83
2023-02-11T00:36:33.576Z,28.67
2023-02-11T00:36:46.362Z,28.63
2023-02-11T00:36:59.358Z,28.67
2023-02-11T00:37:13.641Z,28.55
2023-02-11T00:37:27.450Z,28.10
2023-02-11T00:37:40.230Z,28.73
2023-02-11T00:37:53.762Z,29.45
2023-02-11T00:38:06.509Z,28.25
2023-02-11T00:38:19.424Z,28.23
2023-02-11T00:38:32.172Z,28.35
2023-02-11T00:38:45.678Z,28.80
2023-02-11T00:39:00.251Z,28.30
2023-02-11T00:39:13.085Z,28.02
2023-02-11T00:39:26.049Z,28.77
2023-02-11T00:39:38.779Z,29.52
2023-02-11T00:39:51.877Z,29.30
2023-02-11T00:40:06.715Z,28.58
2023-02-11T00:40:19.819Z,28.42
2023-02-11T00:40:33.664Z,28.25
2023-02-11T00:40:47.790Z,28.33
2023-02-11T00:41:00.536Z,28.65
2023-02-11T00:41:15.030Z,28.75
2023-02-11T00:41:27.818Z,28.88
2023-02-11T00:41:40.572Z,29.17
2023-02-11T00:41:54.350Z,29.23
2023-02-11T00:42:07.024Z,28.70
2023-02-11T00:42:19.910Z,28.55
2023-02-11T00:42:32.668Z,28.95
2023-02-11T00:42:45.545Z,28.75
2023-02-11T00:42:58.396Z,28.45
2023-02-11T00:43:11.198Z,27.48
2023-02-11T00:43:27.909Z,27.55
2023-02-11T00:43:41.321Z,29.13
2023-02-11T00:43:54.576Z,29.05
2023-02-11T00:44:07.334Z,28.17
2023-02-11T00:44:20.127Z,27.75
2023-02-11T00:44:32.831Z,28.17
2023-02-11T00:44:46.705Z,28.35
2023-02-11T00:44:59.399Z,28.35
2023-02-11T00:45:12.495Z,27.85
2023-02-11T00:45:25.274Z,27.67
2023-02-11T00:45:38.031Z,28.48
2023-02-11T00:45:50.948Z,29.23
2023-02-11T00:46:04.064Z,28.33
2023-02-11T00:46:17.251Z,27.38
2023-02-11T00:46:31.221Z,27.67
2023-02-11T00:46:44.213Z,28.00
2023-02-11T00:46:56.943Z,27.95
2023-02-11T00:47:09.726Z,28.60
2023-02-11T00:47:22.507Z,28.20
2023-02-11T00:47:35.814Z,28.48
2023-02-11T00:47:48.899Z,27.92
2023-02-11T00:48:01.630Z,27.88
2023-02-11T00:48:15.409Z,27.75
2023-02-11T00:48:28.208Z,27.60
2023-02-11T00:48:42.130Z,28.23
2023-02-11T00:48:57.731Z,28.17
2023-02-11T00:49:10.488Z,28.42
2023-02-11T00:49:23.194Z,27.85
2023-02-11T00:49:37.094Z,27.70
2023-02-11T00:49:49.773Z,27.77
2023-02-11T00:50:04.788Z,27.80
2023-02-11T00:50:17.562Z,27.25
2023-02-11T00:50:30.247Z,27.10
2023-02-11T00:50:42.998Z,27.95
2023-02-11T00:50:56.688Z,28.23
2023-02-11T00:51:10.148Z,28.13
2023-02-11T00:51:22.880Z,27.58
2023-02-11T00:51:35.927Z,27.30
2023-02-11T00:51:48.649Z,27.90
2023-02-11T00:52:01.368Z,28.13
2023-02-11T00:52:15.232Z,27.27
2023-02-11T00:52:28.147Z,27.50
2023-02-11T00:52:41.063Z,28.13
2023-02-11T00:52:53.813Z,28.30
2023-02-11T00:53:06.719Z,28.75
2023-02-11T00:53:19.384Z,28.63
2023-02-11T00:53:32.549Z,28.20
2023-02-11T00:53:46.278Z,28.15
2023-02-11T00:53:58.955Z,27.73
2023-02-11T00:54:11.779Z,27.88
2023-02-11T00:54:24.518Z,27.38
2023-02-11T00:54:37.207Z,27.02
2023-02-11T00:54:49.909Z,26.70
2023-02-11T00:55:03.645Z,27.08
2023-02-11T00:55:17.208Z,26.77
2023-02-11T00:55:30.907Z,26.50
2023-02-11T00:55:43.594Z,27.27
2023-02-11T00:55:57.724Z,27.48
2023-02-11T00:56:11.532Z,27.17
2023-02-11T00:56:24.585Z,27.02
2023-02-11T00:56:37.315Z,28.10
2023-02-11T00:56:49.998Z,28.70
2023-02-11T00:57:02.911Z,27.80
2023-02-11T00:57:15.532Z,27.77
2023-02-11T00:57:28.231Z,27.92
2023-02-11T00:57:40.979Z,27.35
2023-02-11T00:57:54.770Z,26.45
2023-02-11T00:58:07.504Z,26.58
2023-02-11T00:58:20.508Z,27.63
2023-02-11T00:58:33.293Z,27.55
2023-02-11T00:58:46.072Z,27.65
2023-02-11T00:58:58.896Z,27.17
2023-02-11T00:59:13.859Z,27.33
2023-02-11T00:59:27.022Z,28.15
2023-02-11T00:59:40.332Z,28.20
2023-02-11T00:59:53.050Z,27.38
2023-02-11T01:00:07.268Z,26.23
2023-02-11T01:00:20.323Z,26.92
2023-02-11T01:00:33.146Z,27.88
2023-02-11T01:00:45.895Z,27.65
2023-02-11T01:00:59.900Z,27.15
2023-02-11T01:01:12.829Z,27.63
2023-02-11T01:01:25.660Z,27.70
2023-02-11T01:01:38.453Z,27.40
2023-02-11T01:01:51.202Z,27.35
2023-02-11T01:02:04.045Z,27.23
2023-02-11T01:02:18.278Z,26.73
2023-02-11T01:02:31.050Z,26.58
2023-02-11T01:02:43.800Z,26.80
2023-02-11T01:02:56.712Z,26.67
2023-02-11T01:03:09.812Z,26.85
2023-02-11T01:03:23.003Z,26.73
2023-02-11T01:03:35.934Z,25.92
2023-02-11T01:03:49.666Z,25.55
2023-02-11T01:04:02.414Z,25.83
2023-02-11T01:04:15.099Z,26.42
2023-02-11T01:04:27.851Z,26.58
2023-02-11T01:04:40.586Z,27.25
2023-02-11T01:04:53.412Z,27.35
2023-02-11T01:05:06.936Z,27.33
2023-02-11T01:05:20.274Z,27.30
2023-02-11T01:05:34.305Z,26.98
2023-02-11T01:05:47.104Z,26.42
2023-02-11T01:06:00.263Z,26.38
2023-02-11T01:06:13.169Z,26.70
2023-02-11T01:06:25.893Z,26.52
2023-02-11T01:06:38.565Z,26.35
2023-02-11T01:06:51.531Z,26.92
2023-02-11T01:07:05.192Z,26.40
2023-02-11T01:07:17.926Z,26.33
2023-02-11T01:07:30.658Z,27.05
2023-02-11T01:07:43.372Z,27.35
2023-02-11T01:07:56.114Z,26.58
2023-02-11T01:08:08.885Z,26.10
2023-02-11T01:08:21.574Z,26.83
2023-02-11T01:08:35.541Z,27.35
2023-02-11T01:08:48.246Z,26.80
2023-02-11T01:09:01.107Z,26.15
2023-02-11T01:09:13.786Z,26.73
2023-02-11T01:09:26.509Z,26.38
2023-02-11T01:09:39.253Z,26.45
2023-02-11T01:09:52.102Z,26.63
2023-02-11T01:10:05.148Z,26.77
2023-02-11T01:10:19.265Z,26.35
2023-02-11T01:10:32.653Z,26.35
2023-02-11T01:10:45.734Z,26.98
2023-02-11T01:11:01.909Z,27.45
2023-02-11T01:11:16.611Z,27.23
2023-02-11T01:11:29.442Z,27.08
2023-02-11T01:11:43.220Z,26.60
2023-02-11T01:11:55.947Z,27.05
2023-02-11T01:12:08.649Z,26.77
2023-02-11T01:12:21.591Z,26.73
2023-02-11T01:12:36.476Z,26.75
2023-02-11T01:12:49.349Z,26.52
2023-02-11T01:13:02.557Z,26.30
2023-02-11T01:13:16.234Z,26.58
2023-02-11T01:13:31.230Z,26.45
2023-02-11T01:13:44.245Z,25.83
2023-02-11T01:13:57.128Z,25.85
2023-02-11T01:14:10.358Z,26.23
2023-02-11T01:14:24.075Z,25.90
2023-02-11T01:14:37.142Z,25.90
2023-02-11T01:14:49.871Z,26.77
2023-02-11T01:15:02.670Z,26.50
2023-02-11T01:15:16.913Z,26.65
2023-02-11T01:15:29.963Z,27.80
2023-02-11T01:15:42.714Z,27.20
2023-02-11T01:15:57.444Z,25.17
2023-02-11T01:16:11.844Z,25.42
2023-02-11T01:16:24.828Z,26.30
2023-02-11T01:16:37.609Z,26.23
2023-02-11T01:16:50.332Z,26.73
2023-02-11T01:17:05.725Z,26.85
2023-02-11T01:17:18.520Z,26.35
2023-02-11T01:17:31.267Z,26.15
2023-02-11T01:17:45.251Z,26.17
2023-02-11T01:17:58.042Z,25.95
2023-02-11T01:18:10.753Z,25.98
2023-02-11T01:18:23.583Z,26.08
2023-02-11T01:18:37.318Z,26.20
2023-02-11T01:18:50.104Z,26.48
2023-02-11T01:19:03.890Z,27.30
2023-02-11T01:19:16.677Z,27.45
2023-02-11T01:19:29.383Z,26.75
2023-02-11T01:19:42.573Z,26.60
2023-02-11T01:19:55.345Z,26.85
2023-02-11T01:20:13.954Z,26.95
2023-02-11T01:20:28.561Z,26.65
2023-02-11T01:20:42.340Z,26.40
2023-02-11T01:20:55.210Z,25.67
2023-02-11T01:21:07.926Z,26.10
2023-02-11T01:21:20.839Z,26.75
2023-02-11T01:21:33.685Z,26.67
2023-02-11T01:21:47.435Z,26.60
2023-02-11T01:22:00.165Z,26.58
2023-02-11T01:22:12.902Z,26.40
2023-02-11T01:22:25.932Z,26.17
2023-02-11T01:22:39.642Z,26.08
2023-02-11T01:22:52.362Z,26.67
2023-02-11T01:23:05.323Z,26.30
2023-02-11T01:23:18.223Z,25.90
2023-02-11T01:23:32.292Z,26.10
2023-02-11T01:23:45.176Z,25.77
2023-02-11T01:23:57.881Z,26.17
2023-02-11T01:24:10.672Z,25.85
2023-02-11T01:24:23.359Z,25.17
2023-02-11T01:24:36.309Z,25.35
2023-02-11T01:24:49.035Z,25.08
2023-02-11T01:25:02.734Z,25.20
2023-02-11T01:25:15.683Z,25.40
2023-02-11T01:25:28.362Z,25.40
2023-02-11T01:25:41.093Z,25.67
2023-02-11T01:25:54.481Z,25.92
2023-02-11T01:26:08.599Z,26.05
2023-02-11T01:26:21.638Z,26.48
2023-02-11T01:26:35.362Z,25.50
2023-02-11T01:26:48.049Z,25.45
2023-02-11T01:27:01.184Z,25.42
2023-02-11T01:27:14.121Z,25.50
2023-02-11T01:27:26.945Z,26.20
2023-02-11T01:27:41.017Z,25.40
2023-02-11T01:27:53.708Z,24.45
2023-02-11T01:28:11.565Z,24.85
2023-02-11T01:28:26.461Z,25.25
2023-02-11T01:28:39.242Z,25.02
2023-02-11T01:28:52.999Z,24.73
2023-02-11T01:29:05.908Z,24.85
2023-02-11T01:29:18.565Z,25.48
2023-02-11T01:29:31.309Z,25.60
2023-02-11T01:29:43.971Z,24.98
2023-02-11T01:29:56.910Z,24.63
2023-02-11T01:30:12.616Z,24.77
2023-02-11T01:30:26.470Z,25.58
2023-02-11T01:30:39.769Z,26.38
2023-02-11T01:30:53.774Z,27.02
2023-02-11T01:31:07.748Z,26.27
2023-02-11T01:31:20.616Z,24.98
2023-02-11T01:31:33.499Z,24.90
2023-02-11T01:31:47.442Z,24.92
2023-02-11T01:32:01.080Z,25.42
2023-02-11T01:32:13.970Z,25.90
2023-02-11T01:32:26.839Z,25.58
2023-02-11T01:32:40.138Z,24.70
2023-02-11T01:32:52.902Z,24.50
2023-02-11T01:33:05.592Z,24.85
2023-02-11T01:33:19.498Z,25.35
2023-02-11T01:33:32.360Z,25.70
2023-02-11T01:33:45.121Z,25.25
2023-02-11T01:33:58.128Z,24.88
2023-02-11T01:34:10.844Z,25.88
2023-02-11T01:34:23.734Z,26.33
2023-02-11T01:34:37.434Z,26.25
2023-02-11T01:34:50.189Z,25.63
2023-02-11T01:35:02.912Z,25.42
2023-02-11T01:35:15.656Z,25.83
2023-02-11T01:35:28.390Z,26.50
2023-02-11T01:35:41.643Z,25.48
2023-02-11T01:36:00.896Z,25.83
2023-02-11T01:36:13.873Z,25.90
2023-02-11T01:36:27.616Z,25.00
2023-02-11T01:36:40.631Z,24.75
2023-02-11T01:36:57.994Z,24.80
2023-02-11T01:37:10.810Z,25.83
2023-02-11T01:37:23.816Z,25.75
2023-02-11T01:37:37.105Z,25.58
2023-02-11T01:37:49.776Z,25.75
2023-02-11T01:38:02.725Z,25.27
2023-02-11T01:38:18.532Z,24.88
2023-02-11T01:38:32.189Z,25.17
2023-02-11T01:38:45.669Z,24.70
2023-02-11T01:38:58.636Z,24.35
2023-02-11T01:39:11.345Z,24.77
2023-02-11T01:39:24.175Z,25.35
2023-02-11T01:39:38.216Z,24.92
2023-02-11T01:39:50.963Z,24.65
2023-02-11T01:40:05.184Z,24.48
2023-02-11T01:40:18.466Z,24.00
2023-02-11T01:40:31.213Z,24.02
2023-02-11T01:40:48.255Z,24.67
2023-02-11T01:41:03.546Z,24.85
2023-02-11T01:41:18.729Z,24.70
2023-02-11T01:41:31.440Z,25.13
2023-02-11T01:41:44.456Z,24.95
2023-02-11T01:41:57.307Z,24.27
2023-02-11T01:42:15.656Z,24.55
2023-02-11T01:42:28.805Z,24.70
2023-02-11T01:42:41.820Z,24.40
2023-02-11T01:42:55.503Z,23.70
2023-02-11T01:43:11.798Z,24.13
2023-02-11T01:43:26.210Z,24.50
2023-02-11T01:43:42.610Z,24.55
2023-02-11T01:43:56.348Z,25.13
2023-02-11T01:44:29.213Z,24.95
2023-02-11T01:44:42.003Z,25.02
2023-02-11T01:44:55.727Z,24.60
2023-02-11T01:45:43.515Z,24.67
2023-02-11T01:46:06.445Z,24.70
2023-02-11T01:46:32.115Z,24.95
2023-02-11T01:46:45.138Z,24.77
2023-02-11T01:46:57.963Z,23.77
2023-02-11T01:47:10.970Z,23.63
2023-02-11T01:47:24.704Z,24.42
2023-02-11T01:47:37.416Z,24.58
2023-02-11T01:47:50.111Z,24.33
2023-02-11T01:48:02.782Z,24.42
2023-02-11T01:48:20.456Z,24.05
2023-02-11T01:48:36.371Z,23.38
2023-02-11T01:48:54.313Z,23.48
2023-02-11T01:49:11.723Z,23.98
2023-02-11T01:49:28.739Z,24.15
2023-02-11T01:49:44.769Z,23.85
2023-02-11T01:50:02.799Z,23.30
2023-02-11T01:50:15.634Z,24.42
2023-02-11T01:50:28.436Z,24.35
2023-02-11T01:50:43.173Z,23.77
2023-02-11T01:51:01.950Z,23.30
2023-02-11T01:51:21.630Z,23.98
2023-02-11T01:51:39.195Z,23.77
2023-02-11T01:51:56.803Z,24.17
2023-02-11T01:52:13.280Z,24.23
2023-02-11T01:52:31.279Z,24.08
2023-02-11T01:52:46.382Z,24.08
2023-02-11T01:53:19.224Z,23.85
2023-02-11T01:53:48.882Z,24.25
2023-02-11T01:54:22.076Z,23.60
2023-02-11T01:54:56.898Z,24.45
2023-02-11T01:55:28.927Z,24.13
2023-02-11T01:56:02.328Z,24.92
2023-02-11T01:56:37.569Z,24.35
2023-02-11T01:57:11.863Z,24.35
2023-02-11T01:57:28.270Z,24.52
2023-02-11T01:57:45.527Z,23.50
2023-02-11T01:58:00.959Z,23.75
2023-02-11T01:58:13.672Z,24.45
2023-02-11T01:58:28.311Z,23.77
2023-02-11T01:58:43.978Z,23.77
2023-02-11T01:59:03.407Z,24.48
2023-02-11T01:59:20.340Z,24.50
2023-02-11T01:59:39.620Z,24.75
2023-02-11T02:00:00.269Z,24.23
2023-02-11T02:00:17.379Z,24.25
2023-02-11T02:00:36.534Z,23.60
2023-02-11T02:00:50.036Z,23.45
2023-02-11T02:01:06.594Z,23.40
2023-02-11T02:01:25.704Z,24.13
2023-02-11T02:01:42.526Z,25.13
2023-02-11T02:02:01.173Z,24.50
2023-02-11T02:02:17.702Z,24.13
2023-02-11T02:02:38.766Z,24.30
2023-02-11T02:02:57.243Z,24.23
2023-02-11T02:03:14.429Z,23.50
2023-02-11T02:03:28.124Z,25.17
2023-02-11T02:03:44.117Z,24.88
2023-02-11T02:04:01.126Z,24.25
2023-02-11T02:04:17.994Z,23.48
2023-02-11T02:04:39.902Z,23.13
2023-02-11T02:04:59.232Z,24.23
2023-02-11T02:05:23.536Z,24.15
2023-02-11T02:05:40.684Z,25.08
2023-02-11T02:05:58.019Z,24.27
2023-02-11T02:06:16.898Z,24.92
2023-02-11T02:06:35.139Z,24.77
2023-02-11T02:06:56.275Z,23.92
2023-02-11T02:07:14.542Z,24.15
2023-02-11T02:07:33.799Z,24.30
2023-02-11T02:07:54.397Z,24.58
2023-02-11T02:08:14.598Z,24.58
2023-02-11T02:08:32.911Z,23.95
2023-02-11T02:08:52.595Z,24.90
2023-02-11T02:09:10.060Z,25.30
2023-02-11T02:09:29.388Z,25.00
2023-02-11T02:09:49.607Z,24.65
2023-02-11T02:10:09.742Z,24.63
2023-02-11T02:10:26.047Z,24.80
2023-02-11T02:10:43.533Z,23.67
2023-02-11T02:10:58.523Z,23.98
2023-02-11T02:11:11.690Z,25.02
2023-02-11T02:11:26.383Z,25.02
2023-02-11T02:11:39.095Z,24.55
2023-02-11T02:11:51.850Z,24.02
2023-02-11T02:12:04.783Z,24.05
2023-02-11T02:12:18.453Z,24.05
2023-02-11T02:12:31.169Z,24.13
2023-02-11T02:12:43.954Z,24.38
2023-02-11T02:12:56.842Z,24.65
2023-02-11T02:13:09.893Z,24.70
2023-02-11T02:13:23.130Z,24.35
2023-02-11T02:13:37.387Z,24.60
2023-02-11T02:13:50.160Z,25.15
2023-02-11T02:14:03.048Z,25.17
2023-02-11T02:14:15.850Z,25.08
2023-02-11T02:14:29.006Z,25.05
2023-02-11T02:14:42.443Z,24.75
2023-02-11T02:15:24.160Z,24.25
2023-02-11T02:15:39.702Z,24.75
2023-02-11T02:15:54.341Z,24.58
2023-02-11T02:16:12.839Z,24.35
2023-02-11T02:16:32.203Z,24.38
2023-02-11T02:16:45.637Z,24.00
2023-02-11T02:16:58.486Z,24.55
2023-02-11T02:17:22.803Z,24.98
2023-02-11T02:17:45.084Z,23.85
2023-02-11T02:18:02.806Z,23.30
2023-02-11T02:18:41.214Z,22.45
2023-02-11T02:19:10.405Z,24.08
2023-02-11T02:19:58.253Z,24.17
2023-02-11T02:21:13.595Z,23.20
2023-02-11T02:22:00.093Z,23.67
2023-02-11T02:22:51.298Z,23.77
2023-02-11T02:23:25.150Z,22.98
2023-02-11T02:24:15.178Z,24.02
2023-02-11T02:24:47.132Z,23.00
2023-02-11T02:25:19.941Z,23.15
2023-02-11T02:26:00.523Z,23.77
2023-02-11T02:26:48.215Z,24.23
2023-02-11T02:27:37.326Z,24.27
2023-02-11T02:27:58.911Z,24.02
2023-02-11T02:28:32.779Z,23.60
2023-02-11T02:29:21.176Z,23.95
2023-02-11T02:30:01.658Z,23.98
2023-02-11T02:30:39.138Z,23.75
2023-02-11T02:31:12.830Z,23.85
2023-02-11T02:31:47.251Z,23.33
2023-02-11T02:32:27.482Z,23.42
2023-02-11T02:32:51.028Z,23.65
2023-02-11T02:33:22.937Z,23.73
2023-02-11T02:33:47.397Z,24.13
2023-02-11T02:34:06.808Z,23.85
2023-02-11T02:34:27.451Z,23.10
2023-02-11T02:34:49.044Z,23.45
2023-02-11T02:35:10.967Z,24.15
2023-02-11T02:35:35.476Z,23.17
2023-02-11T02:35:56.121Z,23.50
2023-02-11T02:36:15.158Z,23.63
2023-02-11T02:36:34.605Z,23.60
2023-02-11T02:36:56.493Z,23.75
2023-02-11T02:37:16.179Z,23.20
2023-02-11T02:37:34.870Z,23.80
2023-02-11T02:37:52.077Z,23.98
2023-02-11T02:38:12.088Z,23.33
2023-02-11T02:38:32.280Z,23.60
2023-02-11T02:38:53.370Z,22.85
2023-02-11T02:39:10.189Z,23.08
2023-02-11T02:39:28.281Z,23.60
2023-02-11T02:39:42.181Z,24.15
2023-02-11T02:39:57.754Z,24.60
2023-02-11T02:40:18.506Z,24.73
2023-02-11T02:40:35.406Z,23.75
2023-02-11T02:40:51.920Z,23.30
2023-02-11T02:41:08.846Z,24.05
2023-02-11T02:41:28.144Z,24.30
2023-02-11T02:41:42.486Z,23.75
2023-02-11T02:41:57.158Z,23.30
2023-02-11T02:42:10.557Z,23.10
2023-02-11T02:42:24.861Z,23.25
2023-02-11T02:42:40.730Z,23.55
2023-02-11T02:42:55.148Z,23.55
2023-02-11T02:43:10.133Z,23.45
2023-02-11T02:43:26.992Z,23.60
2023-02-11T02:43:42.834Z,23.25
2023-02-11T02:43:55.710Z,23.67
2023-02-11T02:44:09.300Z,24.00
2023-02-11T02:44:22.447Z,23.85
2023-02-11T02:44:35.219Z,24.05
2023-02-11T02:44:49.536Z,24.15
2023-02-11T02:45:02.398Z,23.73
2023-02-11T02:45:16.661Z,23.13
2023-02-11T02:45:29.405Z,22.90
2023-02-11T02:45:42.185Z,23.52
2023-02-11T02:45:55.180Z,23.75
2023-02-11T02:46:14.254Z,23.80
2023-02-11T02:46:29.501Z,23.70
2023-02-11T02:46:42.502Z,23.48
2023-02-11T02:46:56.368Z,23.08
2023-02-11T02:47:09.117Z,23.20
2023-02-11T02:47:23.236Z,23.70
2023-02-11T02:47:35.953Z,23.88
2023-02-11T02:47:48.745Z,23.80
2023-02-11T02:48:01.460Z,23.55
2023-02-11T02:48:26.124Z,23.52
2023-02-11T02:48:40.035Z,23.88
2023-02-11T02:48:54.091Z,23.80
2023-02-11T02:49:12.587Z,23.80
2023-02-11T02:49:25.339Z,23.45
2023-02-11T02:49:38.033Z,24.00
2023-02-11T02:49:50.755Z,24.42
2023-02-11T02:50:04.037Z,24.85
2023-02-11T02:50:25.015Z,23.60
2023-02-11T02:50:38.484Z,22.63
2023-02-11T02:51:01.007Z,22.75
2023-02-11T02:51:39.794Z,23.08
2023-02-11T02:52:17.226Z,22.88
2023-02-11T02:52:35.738Z,23.77
2023-02-11T02:52:56.320Z,23.85
2023-02-11T02:53:24.255Z,23.52
2023-02-11T02:53:44.760Z,23.42
2023-02-11T02:54:12.152Z,23.42
2023-02-11T02:54:56.867Z,23.85
2023-02-11T02:55:21.960Z,23.50
2023-02-11T02:55:53.844Z,24.40
2023-02-11T02:56:13.374Z,23.88
2023-02-11T02:56:37.091Z,23.20
2023-02-11T02:56:55.496Z,23.02
2023-02-11T02:57:21.275Z,24.10
2023-02-11T02:57:46.252Z,23.90
2023-02-11T02:58:14.609Z,23.60
2023-02-11T02:58:53.824Z,23.85
2023-02-11T02:59:33.192Z,24.33
2023-02-11T03:00:02.060Z,23.55
2023-02-11T03:00:24.180Z,23.48
2023-02-11T03:00:45.271Z,23.38
2023-02-11T03:01:03.957Z,24.30
2023-02-11T03:01:27.922Z,23.77
2023-02-11T03:01:50.776Z,23.75
2023-02-11T03:02:14.627Z,23.33
2023-02-11T03:02:34.760Z,23.75
2023-02-11T03:02:59.664Z,23.95
2023-02-11T03:03:26.335Z,23.95
2023-02-11T03:03:48.806Z,23.15
2023-02-11T03:04:13.367Z,23.33
2023-02-11T03:04:35.956Z,23.13
2023-02-11T03:04:57.779Z,23.60
2023-02-11T03:05:17.716Z,23.48
2023-02-11T03:05:39.522Z,23.27
2023-02-11T03:05:59.496Z,23.13
2023-02-11T03:06:17.929Z,24.33
2023-02-11T03:06:36.190Z,23.55
2023-02-11T03:06:55.400Z,23.25
2023-02-11T03:07:18.346Z,23.48
2023-02-11T03:07:42.590Z,23.85
2023-02-11T03:08:00.352Z,24.05
2023-02-11T03:08:18.967Z,23.95
2023-02-11T03:08:38.043Z,24.05
2023-02-11T03:08:58.234Z,23.58
2023-02-11T03:09:16.627Z,23.70
2023-02-11T03:09:33.399Z,24.63
2023-02-11T03:09:51.535Z,24.20
2023-02-11T03:10:09.425Z,23.98
2023-02-11T03:10:27.670Z,23.70
2023-02-11T03:10:43.675Z,23.42
2023-02-11T03:10:58.028Z,24.00
2023-02-11T03:11:12.523Z,24.20
2023-02-11T03:11:26.990Z,23.35
2023-02-11T03:11:40.551Z,22.80
2023-02-11T03:11:53.370Z,23.27
2023-02-11T03:12:08.581Z,23.30
2023-02-11T03:12:23.575Z,23.55
2023-02-11T03:12:37.840Z,24.33
2023-02-11T03:12:51.550Z,24.10
2023-02-11T03:13:06.061Z,24.00
2023-02-11T03:13:23.087Z,23.55
2023-02-11T03:13:38.336Z,22.88
2023-02-11T03:13:53.454Z,23.00
2023-02-11T03:14:10.555Z,24.08
2023-02-11T03:14:26.993Z,25.00
2023-02-11T03:14:41.619Z,24.65
2023-02-11T03:14:54.648Z,24.77
2023-02-11T03:15:08.532Z,24.38
2023-02-11T03:15:24.846Z,24.30
2023-02-11T03:15:41.469Z,24.20
2023-02-11T03:15:57.915Z,23.98
2023-02-11T03:16:15.277Z,24.48
2023-02-11T03:16:28.951Z,23.95
2023-02-11T03:16:43.781Z,23.35
2023-02-11T03:17:00.341Z,23.65
2023-02-11T03:17:16.063Z,23.60
2023-02-11T03:17:34.346Z,23.70
2023-02-11T03:17:49.771Z,23.70
2023-02-11T03:18:04.410Z,23.80
2023-02-11T03:18:20.414Z,24.25
2023-02-11T03:18:38.004Z,24.92
2023-02-11T03:18:57.884Z,24.98
2023-02-11T03:19:14.288Z,24.15
2023-02-11T03:19:30.962Z,23.23
2023-02-11T03:19:46.581Z,23.17
2023-02-11T03:20:00.377Z,23.52
2023-02-11T03:20:17.309Z,24.02
2023-02-11T03:20:34.351Z,24.48
2023-02-11T03:20:51.070Z,24.45
2023-02-11T03:21:07.722Z,24.98
2023-02-11T03:21:21.313Z,24.75
2023-02-11T03:21:38.623Z,24.88
2023-02-11T03:21:54.502Z,24.92
2023-02-11T03:22:11.569Z,24.85
2023-02-11T03:22:30.818Z,24.80
2023-02-11T03:22:49.423Z,24.52
2023-02-11T03:23:06.470Z,23.73
2023-02-11T03:23:24.089Z,24.20
2023-02-11T03:23:41.229Z,24.73
2023-02-11T03:23:56.565Z,24.80
2023-02-11T03:24:18.869Z,24.75
2023-02-11T03:24:34.835Z,24.65
2023-02-11T03:24:48.609Z,24.52
2023-02-11T03:25:02.634Z,24.20
2023-02-11T03:25:16.844Z,24.38
2023-02-11T03:25:35.528Z,24.75
2023-02-11T03:25:53.178Z,24.98
2023-02-11T03:26:18.059Z,24.52
2023-02-11T03:26:36.956Z,23.80
2023-02-11T03:26:53.868Z,23.95
2023-02-11T03:27:12.923Z,24.55